Crane, Washington
Current Conditions -  °F | °C
As of 7:16 AM on Thursday 30 Oct 2014 (Local Time) from KCLM Reporting Station
Overcast Overcast  
Wind Chill: 46°   Ceiling: 600
Heat Index: 49°   Visibility: 10mi
Dew Point: 47°   Wind: 7mph
Humidity: 93%   Direction: 220°SW
Pressure: 29.82"   Gusts: NA
Location:  48.1359°N, 123.734°W
Report Text: KCLM 301416Z AUTO 22006KT 10SM BKN006 BKN065 OVC100 09/08 A2982 RMK AO2 T00940083 $
Loading
Personal Weather Stations






























Interactive Weather Map
Tropical Storm Tracking
New forecast layout! Learn more

10-Day Weather Forecast

Advertisements
Track Severe Weather on mobile